Terminal Aerodrome Forecast
Issued by NWS Grand Forks, ND

Home | Current Version | Previous Version | Graphics & Text | Print | Product List | Glossary On
Versions: 1 2 3 4 5 6 7 8 9 10 11 12 13 14 15 16
000
FTUS43 KFGF 150755 AAA
TAFFAR
TAF AMD
KFAR 150755Z 1508/1606 31017KT P6SM BKN016
      TEMPO 1508/1510 31018G27KT
     FM151500 32016G24KT P6SM BKN035
     FM152000 33016G24KT P6SM BKN030
     FM160200 34010KT P6SM BKN020
     FM160400 35007KT P6SM BKN035
     FM160500 36006KT P6SM SCT050=

USA.gov is the U.S. government's official web portal to all federal, state and local government web resources and services.